sensor_id;sensor_type;location;lat;lon;timestamp;P1;durP1;ratioP1;P2;durP2;ratioP2
55069;SDS011;40967;52.070;8.596;2023-02-01T00:01:43;9.68;;;2.38;;
55069;SDS011;40967;52.070;8.596;2023-02-01T00:04:09;11.93;;;2.43;;
55069;SDS011;40967;52.070;8.596;2023-02-01T00:06:34;14.43;;;2.90;;
55069;SDS011;40967;52.070;8.596;2023-02-01T00:09:00;15.07;;;2.83;;
55069;SDS011;40967;52.070;8.596;2023-02-01T00:11:26;17.15;;;3.35;;
55069;SDS011;40967;52.070;8.596;2023-02-01T00:13:51;15.50;;;3.00;;
55069;SDS011;40967;52.070;8.596;2023-02-01T00:16:18;13.20;;;2.83;;
55069;SDS011;40967;52.070;8.596;2023-02-01T00:18:47;12.70;;;2.78;;
55069;SDS011;40967;52.070;8.596;2023-02-01T00:21:14;13.02;;;2.47;;
55069;SDS011;40967;52.070;8.596;2023-02-01T00:23:42;12.38;;;2.25;;
55069;SDS011;40967;52.070;8.596;2023-02-01T00:26:11;9.25;;;2.47;;
55069;SDS011;40967;52.070;8.596;2023-02-01T00:28:41;13.68;;;2.60;;
55069;SDS011;40967;52.070;8.596;2023-02-01T00:31:06;16.98;;;3.00;;
55069;SDS011;40967;52.070;8.596;2023-02-01T00:33:32;15.10;;;2.53;;
55069;SDS011;40967;52.070;8.596;2023-02-01T00:36:01;12.23;;;2.75;;
55069;SDS011;40967;52.070;8.596;2023-02-01T00:38:28;11.13;;;2.42;;
55069;SDS011;40967;52.070;8.596;2023-02-01T00:41:01;11.85;;;2.38;;
55069;SDS011;40967;52.070;8.596;2023-02-01T00:43:27;9.85;;;1.90;;
55069;SDS011;40967;52.070;8.596;2023-02-01T00:45:52;8.87;;;1.63;;
55069;SDS011;40967;52.070;8.596;2023-02-01T00:48:18;14.13;;;2.30;;
55069;SDS011;40967;52.070;8.596;2023-02-01T00:50:43;9.47;;;2.27;;
55069;SDS011;40967;52.070;8.596;2023-02-01T00:53:10;9.25;;;2.10;;
55069;SDS011;40967;52.070;8.596;2023-02-01T00:55:36;9.23;;;2.20;;
55069;SDS011;40967;52.070;8.596;2023-02-01T00:58:02;9.60;;;2.00;;
55069;SDS011;40967;52.070;8.596;2023-02-01T01:00:28;6.90;;;1.80;;
55069;SDS011;40967;52.070;8.596;2023-02-01T01:02:55;14.83;;;2.43;;
55069;SDS011;40967;52.070;8.596;2023-02-01T01:05:21;10.55;;;2.45;;
55069;SDS011;40967;52.070;8.596;2023-02-01T01:07:46;8.90;;;1.90;;
55069;SDS011;40967;52.070;8.596;2023-02-01T01:10:11;5.63;;;1.70;;
55069;SDS011;40967;52.070;8.596;2023-02-01T01:12:37;8.47;;;1.60;;
55069;SDS011;40967;52.070;8.596;2023-02-01T01:15:02;19.10;;;3.93;;
55069;SDS011;40967;52.070;8.596;2023-02-01T01:17:28;14.85;;;2.65;;
55069;SDS011;40967;52.070;8.596;2023-02-01T01:19:56;16.23;;;2.60;;
55069;SDS011;40967;52.070;8.596;2023-02-01T01:22:21;13.27;;;2.83;;
55069;SDS011;40967;52.070;8.596;2023-02-01T01:24:46;17.50;;;2.90;;
55069;SDS011;40967;52.070;8.596;2023-02-01T01:27:12;12.03;;;2.60;;
55069;SDS011;40967;52.070;8.596;2023-02-01T01:29:37;15.88;;;2.95;;
55069;SDS011;40967;52.070;8.596;2023-02-01T01:32:03;18.57;;;3.00;;
55069;SDS011;40967;52.070;8.596;2023-02-01T01:34:28;13.40;;;2.87;;
55069;SDS011;40967;52.070;8.596;2023-02-01T01:36:53;17.05;;;2.60;;
55069;SDS011;40967;52.070;8.596;2023-02-01T01:39:19;16.47;;;3.13;;
55069;SDS011;40967;52.070;8.596;2023-02-01T01:41:44;12.57;;;2.73;;
55069;SDS011;40967;52.070;8.596;2023-02-01T01:47:13;16.17;;;2.80;;
55069;SDS011;40967;52.070;8.596;2023-02-01T01:49:40;13.30;;;3.17;;
55069;SDS011;40967;52.070;8.596;2023-02-01T01:52:06;14.90;;;3.27;;
55069;SDS011;40967;52.070;8.596;2023-02-01T01:54:33;15.50;;;3.65;;
55069;SDS011;40967;52.070;8.596;2023-02-01T01:57:10;17.02;;;3.65;;
55069;SDS011;40967;52.070;8.596;2023-02-01T01:59:40;15.55;;;2.70;;
55069;SDS011;40967;52.070;8.596;2023-02-01T02:02:09;14.02;;;3.13;;
55069;SDS011;40967;52.070;8.596;2023-02-01T02:04:35;13.85;;;2.63;;
55069;SDS011;40967;52.070;8.596;2023-02-01T02:07:03;18.35;;;3.65;;
55069;SDS011;40967;52.070;8.596;2023-02-01T02:09:30;11.63;;;2.67;;
55069;SDS011;40967;52.070;8.596;2023-02-01T02:11:55;15.67;;;3.30;;
55069;SDS011;40967;52.070;8.596;2023-02-01T02:14:21;15.97;;;3.10;;
55069;SDS011;40967;52.070;8.596;2023-02-01T02:34:21;12.85;;;2.40;;
55069;SDS011;40967;52.070;8.596;2023-02-01T02:39:47;16.80;;;3.97;;
55069;SDS011;40967;52.070;8.596;2023-02-01T02:42:29;14.05;;;2.90;;
55069;SDS011;40967;52.070;8.596;2023-02-01T02:45:38;16.75;;;3.42;;
55069;SDS011;40967;52.070;8.596;2023-02-01T02:48:35;11.95;;;2.83;;
55069;SDS011;40967;52.070;8.596;2023-02-01T02:51:31;16.52;;;3.05;;
55069;SDS011;40967;52.070;8.596;2023-02-01T02:54:19;10.73;;;2.72;;
55069;SDS011;40967;52.070;8.596;2023-02-01T02:57:07;14.38;;;3.10;;
55069;SDS011;40967;52.070;8.596;2023-02-01T02:59:55;20.15;;;3.47;;
55069;SDS011;40967;52.070;8.596;2023-02-01T03:02:44;18.02;;;3.38;;
55069;SDS011;40967;52.070;8.596;2023-02-01T03:05:36;13.88;;;2.63;;
55069;SDS011;40967;52.070;8.596;2023-02-01T03:08:11;13.52;;;2.72;;
55069;SDS011;40967;52.070;8.596;2023-02-01T03:13:09;26.05;;;4.05;;
55069;SDS011;40967;52.070;8.596;2023-02-01T03:18:10;19.37;;;3.27;;
55069;SDS011;40967;52.070;8.596;2023-02-01T03:20:42;14.52;;;3.35;;
55069;SDS011;40967;52.070;8.596;2023-02-01T03:23:10;19.90;;;3.35;;
55069;SDS011;40967;52.070;8.596;2023-02-01T03:25:39;18.33;;;3.42;;
55069;SDS011;40967;52.070;8.596;2023-02-01T03:28:07;15.50;;;3.25;;
55069;SDS011;40967;52.070;8.596;2023-02-01T03:30:36;13.63;;;2.78;;
55069;SDS011;40967;52.070;8.596;2023-02-01T03:33:08;12.18;;;2.53;;
55069;SDS011;40967;52.070;8.596;2023-02-01T03:43:58;18.27;;;3.38;;
55069;SDS011;40967;52.070;8.596;2023-02-01T03:49:40;14.30;;;3.20;;
55069;SDS011;40967;52.070;8.596;2023-02-01T03:52:09;20.63;;;3.90;;
55069;SDS011;40967;52.070;8.596;2023-02-01T03:54:38;18.20;;;3.05;;
55069;SDS011;40967;52.070;8.596;2023-02-01T03:57:06;17.37;;;3.37;;
55069;SDS011;40967;52.070;8.596;2023-02-01T03:59:43;10.10;;;2.22;;
55069;SDS011;40967;52.070;8.596;2023-02-01T04:02:10;12.82;;;2.63;;
55069;SDS011;40967;52.070;8.596;2023-02-01T04:04:36;12.85;;;2.63;;
55069;SDS011;40967;52.070;8.596;2023-02-01T04:07:01;14.77;;;2.67;;
55069;SDS011;40967;52.070;8.596;2023-02-01T04:09:27;10.80;;;2.55;;
55069;SDS011;40967;52.070;8.596;2023-02-01T04:11:52;17.53;;;3.17;;
55069;SDS011;40967;52.070;8.596;2023-02-01T04:14:18;12.70;;;3.03;;
55069;SDS011;40967;52.070;8.596;2023-02-01T04:16:43;19.40;;;3.35;;
55069;SDS011;40967;52.070;8.596;2023-02-01T04:19:09;16.47;;;3.17;;
55069;SDS011;40967;52.070;8.596;2023-02-01T04:21:34;15.37;;;3.40;;
55069;SDS011;40967;52.070;8.596;2023-02-01T04:24:00;18.75;;;3.25;;
55069;SDS011;40967;52.070;8.596;2023-02-01T04:26:25;16.03;;;3.63;;
55069;SDS011;40967;52.070;8.596;2023-02-01T04:28:51;18.43;;;2.80;;
55069;SDS011;40967;52.070;8.596;2023-02-01T04:31:17;12.80;;;2.97;;
55069;SDS011;40967;52.070;8.596;2023-02-01T04:33:50;13.18;;;2.90;;
55069;SDS011;40967;52.070;8.596;2023-02-01T04:36:17;18.80;;;3.50;;
55069;SDS011;40967;52.070;8.596;2023-02-01T04:38:45;15.33;;;2.90;;
55069;SDS011;40967;52.070;8.596;2023-02-01T04:41:14;18.92;;;3.45;;
55069;SDS011;40967;52.070;8.596;2023-02-01T04:43:44;13.93;;;2.90;;
55069;SDS011;40967;52.070;8.596;2023-02-01T04:46:11;14.18;;;2.50;;
55069;SDS011;40967;52.070;8.596;2023-02-01T04:48:36;18.87;;;3.53;;
55069;SDS011;40967;52.070;8.596;2023-02-01T04:51:02;17.50;;;3.43;;
55069;SDS011;40967;52.070;8.596;2023-02-01T04:53:27;20.88;;;3.83;;
55069;SDS011;40967;52.070;8.596;2023-02-01T04:55:54;22.48;;;4.10;;
55069;SDS011;40967;52.070;8.596;2023-02-01T04:58:20;15.27;;;3.08;;
55069;SDS011;40967;52.070;8.596;2023-02-01T05:00:45;12.93;;;2.80;;
55069;SDS011;40967;52.070;8.596;2023-02-01T05:03:11;14.83;;;3.27;;
55069;SDS011;40967;52.070;8.596;2023-02-01T05:05:36;10.82;;;2.47;;
55069;SDS011;40967;52.070;8.596;2023-02-01T05:08:02;14.00;;;3.27;;
55069;SDS011;40967;52.070;8.596;2023-02-01T05:10:28;15.87;;;2.83;;
55069;SDS011;40967;52.070;8.596;2023-02-01T05:12:53;22.20;;;4.20;;
55069;SDS011;40967;52.070;8.596;2023-02-01T05:15:37;21.90;;;3.20;;
55069;SDS011;40967;52.070;8.596;2023-02-01T05:18:02;16.77;;;3.40;;
55069;SDS011;40967;52.070;8.596;2023-02-01T05:20:28;13.47;;;2.77;;
55069;SDS011;40967;52.070;8.596;2023-02-01T05:22:54;21.73;;;4.15;;
55069;SDS011;40967;52.070;8.596;2023-02-01T05:25:20;19.08;;;3.88;;
55069;SDS011;40967;52.070;8.596;2023-02-01T05:27:45;11.57;;;3.03;;
55069;SDS011;40967;52.070;8.596;2023-02-01T05:30:11;17.03;;;3.60;;
55069;SDS011;40967;52.070;8.596;2023-02-01T05:32:36;12.00;;;2.78;;
55069;SDS011;40967;52.070;8.596;2023-02-01T05:35:02;14.83;;;3.57;;
55069;SDS011;40967;52.070;8.596;2023-02-01T05:37:27;15.90;;;3.17;;
55069;SDS011;40967;52.070;8.596;2023-02-01T05:39:53;21.58;;;3.10;;
55069;SDS011;40967;52.070;8.596;2023-02-01T05:42:21;11.57;;;2.50;;
55069;SDS011;40967;52.070;8.596;2023-02-01T05:44:48;19.30;;;3.67;;
55069;SDS011;40967;52.070;8.596;2023-02-01T05:47:14;14.63;;;3.50;;
55069;SDS011;40967;52.070;8.596;2023-02-01T05:49:39;17.27;;;3.25;;
55069;SDS011;40967;52.070;8.596;2023-02-01T05:52:04;22.10;;;3.50;;
55069;SDS011;40967;52.070;8.596;2023-02-01T05:54:33;21.67;;;3.60;;
55069;SDS011;40967;52.070;8.596;2023-02-01T05:57:03;19.52;;;3.60;;
55069;SDS011;40967;52.070;8.596;2023-02-01T05:59:29;16.07;;;3.97;;
55069;SDS011;40967;52.070;8.596;2023-02-01T06:01:54;17.17;;;3.63;;
55069;SDS011;40967;52.070;8.596;2023-02-01T06:04:20;18.27;;;3.30;;
55069;SDS011;40967;52.070;8.596;2023-02-01T06:06:45;17.23;;;2.90;;
55069;SDS011;40967;52.070;8.596;2023-02-01T06:09:10;20.67;;;3.67;;
55069;SDS011;40967;52.070;8.596;2023-02-01T06:11:36;16.47;;;3.70;;
55069;SDS011;40967;52.070;8.596;2023-02-01T06:14:01;19.27;;;4.18;;
55069;SDS011;40967;52.070;8.596;2023-02-01T06:16:26;15.30;;;3.33;;
55069;SDS011;40967;52.070;8.596;2023-02-01T06:18:52;21.67;;;3.83;;
55069;SDS011;40967;52.070;8.596;2023-02-01T06:21:18;16.45;;;3.00;;
55069;SDS011;40967;52.070;8.596;2023-02-01T06:23:51;16.73;;;3.80;;
55069;SDS011;40967;52.070;8.596;2023-02-01T06:26:18;19.70;;;4.05;;
55069;SDS011;40967;52.070;8.596;2023-02-01T06:28:43;22.57;;;4.27;;
55069;SDS011;40967;52.070;8.596;2023-02-01T06:31:09;20.05;;;3.80;;
55069;SDS011;40967;52.070;8.596;2023-02-01T06:33:35;19.45;;;3.90;;
55069;SDS011;40967;52.070;8.596;2023-02-01T06:36:01;15.20;;;3.40;;
55069;SDS011;40967;52.070;8.596;2023-02-01T06:38:29;14.93;;;4.32;;
55069;SDS011;40967;52.070;8.596;2023-02-01T06:40:55;16.95;;;4.07;;
55069;SDS011;40967;52.070;8.596;2023-02-01T06:43:22;20.05;;;3.80;;
55069;SDS011;40967;52.070;8.596;2023-02-01T06:45:51;21.65;;;4.22;;
55069;SDS011;40967;52.070;8.596;2023-02-01T06:48:17;18.88;;;3.75;;
55069;SDS011;40967;52.070;8.596;2023-02-01T06:50:43;16.23;;;2.97;;
55069;SDS011;40967;52.070;8.596;2023-02-01T06:53:08;16.27;;;2.63;;
55069;SDS011;40967;52.070;8.596;2023-02-01T06:55:33;17.60;;;3.20;;
55069;SDS011;40967;52.070;8.596;2023-02-01T06:57:59;23.17;;;3.40;;
55069;SDS011;40967;52.070;8.596;2023-02-01T07:00:26;21.40;;;4.13;;
55069;SDS011;40967;52.070;8.596;2023-02-01T07:02:51;24.80;;;3.70;;
55069;SDS011;40967;52.070;8.596;2023-02-01T07:05:16;15.97;;;3.33;;
55069;SDS011;40967;52.070;8.596;2023-02-01T07:07:42;19.77;;;3.83;;
55069;SDS011;40967;52.070;8.596;2023-02-01T07:10:08;22.80;;;4.20;;
55069;SDS011;40967;52.070;8.596;2023-02-01T07:12:34;22.03;;;4.00;;
55069;SDS011;40967;52.070;8.596;2023-02-01T07:14:59;20.13;;;3.87;;
55069;SDS011;40967;52.070;8.596;2023-02-01T07:17:26;15.53;;;2.97;;
55069;SDS011;40967;52.070;8.596;2023-02-01T07:19:53;13.82;;;2.47;;
55069;SDS011;40967;52.070;8.596;2023-02-01T07:22:19;15.00;;;3.07;;
55069;SDS011;40967;52.070;8.596;2023-02-01T07:24:44;14.38;;;3.30;;
55069;SDS011;40967;52.070;8.596;2023-02-01T07:27:10;23.77;;;4.33;;
55069;SDS011;40967;52.070;8.596;2023-02-01T07:29:35;21.37;;;3.93;;
55069;SDS011;40967;52.070;8.596;2023-02-01T07:32:00;21.10;;;3.73;;
55069;SDS011;40967;52.070;8.596;2023-02-01T07:34:27;19.88;;;3.72;;
55069;SDS011;40967;52.070;8.596;2023-02-01T07:36:53;21.47;;;3.50;;
55069;SDS011;40967;52.070;8.596;2023-02-01T07:39:18;19.77;;;4.07;;
55069;SDS011;40967;52.070;8.596;2023-02-01T07:41:43;15.30;;;3.33;;
55069;SDS011;40967;52.070;8.596;2023-02-01T07:44:09;23.23;;;4.07;;
55069;SDS011;40967;52.070;8.596;2023-02-01T07:46:34;16.03;;;3.40;;
55069;SDS011;40967;52.070;8.596;2023-02-01T07:49:00;16.83;;;3.33;;
55069;SDS011;40967;52.070;8.596;2023-02-01T07:51:26;22.03;;;3.20;;
55069;SDS011;40967;52.070;8.596;2023-02-01T07:53:51;18.13;;;3.53;;
55069;SDS011;40967;52.070;8.596;2023-02-01T07:56:17;18.20;;;4.30;;
55069;SDS011;40967;52.070;8.596;2023-02-01T07:58:48;23.10;;;5.00;;
55069;SDS011;40967;52.070;8.596;2023-02-01T08:01:15;20.92;;;4.18;;
55069;SDS011;40967;52.070;8.596;2023-02-01T08:03:44;13.70;;;3.03;;
55069;SDS011;40967;52.070;8.596;2023-02-01T08:06:10;17.03;;;3.20;;
55069;SDS011;40967;52.070;8.596;2023-02-01T08:08:35;21.63;;;3.70;;
55069;SDS011;40967;52.070;8.596;2023-02-01T08:11:01;19.00;;;3.67;;
55069;SDS011;40967;52.070;8.596;2023-02-01T08:13:29;17.00;;;3.25;;
55069;SDS011;40967;52.070;8.596;2023-02-01T08:16:01;17.93;;;3.33;;
55069;SDS011;40967;52.070;8.596;2023-02-01T08:18:29;17.43;;;3.47;;
55069;SDS011;40967;52.070;8.596;2023-02-01T08:20:54;11.32;;;2.90;;
55069;SDS011;40967;52.070;8.596;2023-02-01T08:23:20;21.63;;;3.60;;
55069;SDS011;40967;52.070;8.596;2023-02-01T08:25:47;17.23;;;4.00;;
55069;SDS011;40967;52.070;8.596;2023-02-01T08:28:12;16.87;;;3.57;;
55069;SDS011;40967;52.070;8.596;2023-02-01T08:30:38;21.73;;;4.07;;
55069;SDS011;40967;52.070;8.596;2023-02-01T08:33:06;20.77;;;4.25;;
55069;SDS011;40967;52.070;8.596;2023-02-01T08:35:34;15.07;;;3.53;;
55069;SDS011;40967;52.070;8.596;2023-02-01T08:38:00;17.20;;;3.45;;
55069;SDS011;40967;52.070;8.596;2023-02-01T08:40:26;17.65;;;3.10;;
55069;SDS011;40967;52.070;8.596;2023-02-01T08:42:51;19.07;;;4.07;;
55069;SDS011;40967;52.070;8.596;2023-02-01T08:45:24;16.27;;;3.73;;
55069;SDS011;40967;52.070;8.596;2023-02-01T08:47:51;17.33;;;3.55;;
55069;SDS011;40967;52.070;8.596;2023-02-01T08:50:17;22.65;;;3.90;;
55069;SDS011;40967;52.070;8.596;2023-02-01T08:52:43;19.27;;;3.67;;
55069;SDS011;40967;52.070;8.596;2023-02-01T08:55:09;18.75;;;3.58;;
55069;SDS011;40967;52.070;8.596;2023-02-01T08:57:35;21.98;;;3.70;;
55069;SDS011;40967;52.070;8.596;2023-02-01T09:00:00;19.17;;;3.80;;
55069;SDS011;40967;52.070;8.596;2023-02-01T09:02:26;11.88;;;2.83;;
55069;SDS011;40967;52.070;8.596;2023-02-01T09:04:52;12.73;;;2.83;;
55069;SDS011;40967;52.070;8.596;2023-02-01T09:07:17;16.87;;;3.80;;
55069;SDS011;40967;52.070;8.596;2023-02-01T09:09:43;19.40;;;3.10;;
55069;SDS011;40967;52.070;8.596;2023-02-01T09:12:09;17.05;;;3.28;;
55069;SDS011;40967;52.070;8.596;2023-02-01T09:14:35;15.27;;;3.10;;
55069;SDS011;40967;52.070;8.596;2023-02-01T09:17:00;17.90;;;3.53;;
55069;SDS011;40967;52.070;8.596;2023-02-01T09:19:26;15.10;;;3.20;;
55069;SDS011;40967;52.070;8.596;2023-02-01T09:21:51;17.33;;;3.57;;
55069;SDS011;40967;52.070;8.596;2023-02-01T09:24:17;16.00;;;3.07;;
55069;SDS011;40967;52.070;8.596;2023-02-01T09:26:42;18.67;;;3.30;;
55069;SDS011;40967;52.070;8.596;2023-02-01T09:29:08;19.37;;;3.80;;
55069;SDS011;40967;52.070;8.596;2023-02-01T09:31:36;17.15;;;3.70;;
55069;SDS011;40967;52.070;8.596;2023-02-01T09:34:02;12.30;;;2.78;;
55069;SDS011;40967;52.070;8.596;2023-02-01T09:36:28;16.92;;;3.47;;
55069;SDS011;40967;52.070;8.596;2023-02-01T09:38:53;16.87;;;3.27;;
55069;SDS011;40967;52.070;8.596;2023-02-01T09:47:09;12.77;;;2.78;;
55069;SDS011;40967;52.070;8.596;2023-02-01T09:49:45;14.35;;;2.60;;
55069;SDS011;40967;52.070;8.596;2023-02-01T09:52:21;12.02;;;2.65;;
55069;SDS011;40967;52.070;8.596;2023-02-01T09:54:54;13.63;;;3.38;;
55069;SDS011;40967;52.070;8.596;2023-02-01T09:57:27;12.52;;;2.67;;
55069;SDS011;40967;52.070;8.596;2023-02-01T10:00:04;15.98;;;3.25;;
55069;SDS011;40967;52.070;8.596;2023-02-01T10:02:40;15.57;;;2.70;;
55069;SDS011;40967;52.070;8.596;2023-02-01T10:05:18;15.32;;;3.90;;
55069;SDS011;40967;52.070;8.596;2023-02-01T10:08:03;14.07;;;2.70;;
55069;SDS011;40967;52.070;8.596;2023-02-01T10:10:41;13.98;;;2.58;;
55069;SDS011;40967;52.070;8.596;2023-02-01T10:21:02;14.80;;;3.07;;
55069;SDS011;40967;52.070;8.596;2023-02-01T10:23:41;15.32;;;3.42;;
55069;SDS011;40967;52.070;8.596;2023-02-01T10:26:20;14.45;;;2.70;;
55069;SDS011;40967;52.070;8.596;2023-02-01T10:28:53;9.23;;;2.08;;
55069;SDS011;40967;52.070;8.596;2023-02-01T10:31:27;19.42;;;3.33;;
55069;SDS011;40967;52.070;8.596;2023-02-01T10:33:56;17.77;;;3.97;;
55069;SDS011;40967;52.070;8.596;2023-02-01T10:39:06;15.60;;;3.17;;
55069;SDS011;40967;52.070;8.596;2023-02-01T10:41:36;17.17;;;3.13;;
55069;SDS011;40967;52.070;8.596;2023-02-01T10:44:05;10.85;;;2.40;;
55069;SDS011;40967;52.070;8.596;2023-02-01T10:46:35;15.07;;;2.95;;
55069;SDS011;40967;52.070;8.596;2023-02-01T10:49:03;10.77;;;2.43;;
55069;SDS011;40967;52.070;8.596;2023-02-01T10:54:21;13.20;;;2.50;;
55069;SDS011;40967;52.070;8.596;2023-02-01T10:56:56;13.30;;;2.90;;
55069;SDS011;40967;52.070;8.596;2023-02-01T10:59:25;16.55;;;3.28;;
55069;SDS011;40967;52.070;8.596;2023-02-01T11:02:00;15.98;;;3.05;;
55069;SDS011;40967;52.070;8.596;2023-02-01T11:04:27;16.88;;;3.40;;
55069;SDS011;40967;52.070;8.596;2023-02-01T11:07:13;15.68;;;3.10;;
55069;SDS011;40967;52.070;8.596;2023-02-01T11:09:48;15.38;;;3.33;;
55069;SDS011;40967;52.070;8.596;2023-02-01T11:12:34;16.03;;;2.83;;
55069;SDS011;40967;52.070;8.596;2023-02-01T11:17:48;14.60;;;3.47;;
55069;SDS011;40967;52.070;8.596;2023-02-01T11:20:33;13.07;;;3.40;;
55069;SDS011;40967;52.070;8.596;2023-02-01T11:23:04;11.48;;;2.92;;
55069;SDS011;40967;52.070;8.596;2023-02-01T11:25:30;18.70;;;3.33;;
55069;SDS011;40967;52.070;8.596;2023-02-01T11:28:00;10.32;;;2.40;;
55069;SDS011;40967;52.070;8.596;2023-02-01T11:30:34;16.33;;;3.47;;
55069;SDS011;40967;52.070;8.596;2023-02-01T11:33:04;15.82;;;3.05;;
55069;SDS011;40967;52.070;8.596;2023-02-01T11:35:31;10.70;;;2.78;;
55069;SDS011;40967;52.070;8.596;2023-02-01T11:37:58;16.35;;;3.00;;
55069;SDS011;40967;52.070;8.596;2023-02-01T11:40:26;16.92;;;2.95;;
55069;SDS011;40967;52.070;8.596;2023-02-01T11:45:58;15.63;;;3.38;;
55069;SDS011;40967;52.070;8.596;2023-02-01T11:48:25;15.30;;;2.80;;
55069;SDS011;40967;52.070;8.596;2023-02-01T11:56:52;12.88;;;3.22;;
55069;SDS011;40967;52.070;8.596;2023-02-01T12:16:19;15.88;;;3.17;;
55069;SDS011;40967;52.070;8.596;2023-02-01T12:24:48;12.70;;;2.88;;
55069;SDS011;40967;52.070;8.596;2023-02-01T12:33:17;19.63;;;2.80;;
55069;SDS011;40967;52.070;8.596;2023-02-01T12:38:51;9.77;;;2.42;;
55069;SDS011;40967;52.070;8.596;2023-02-01T12:44:08;13.27;;;3.38;;
55069;SDS011;40967;52.070;8.596;2023-02-01T12:46:49;15.43;;;4.00;;
55069;SDS011;40967;52.070;8.596;2023-02-01T12:52:02;14.07;;;4.00;;
55069;SDS011;40967;52.070;8.596;2023-02-01T12:54:40;13.00;;;3.40;;
55069;SDS011;40967;52.070;8.596;2023-02-01T12:57:32;16.15;;;3.85;;
55069;SDS011;40967;52.070;8.596;2023-02-01T13:00:07;12.82;;;3.58;;
55069;SDS011;40967;52.070;8.596;2023-02-01T13:05:28;14.20;;;3.60;;
55069;SDS011;40967;52.070;8.596;2023-02-01T13:08:02;15.05;;;4.03;;
55069;SDS011;40967;52.070;8.596;2023-02-01T13:10:38;13.68;;;3.78;;
55069;SDS011;40967;52.070;8.596;2023-02-01T13:13:18;12.18;;;3.47;;
55069;SDS011;40967;52.070;8.596;2023-02-01T13:15:49;12.77;;;4.18;;
55069;SDS011;40967;52.070;8.596;2023-02-01T13:18:21;9.35;;;3.33;;
55069;SDS011;40967;52.070;8.596;2023-02-01T13:23:37;13.88;;;3.45;;
55069;SDS011;40967;52.070;8.596;2023-02-01T13:26:05;12.55;;;3.60;;
55069;SDS011;40967;52.070;8.596;2023-02-01T13:28:43;13.27;;;3.40;;
55069;SDS011;40967;52.070;8.596;2023-02-01T13:42:25;18.67;;;3.65;;
55069;SDS011;40967;52.070;8.596;2023-02-01T13:44:58;12.48;;;3.30;;
55069;SDS011;40967;52.070;8.596;2023-02-01T13:47:28;12.27;;;3.47;;
55069;SDS011;40967;52.070;8.596;2023-02-01T13:50:01;12.85;;;3.28;;
55069;SDS011;40967;52.070;8.596;2023-02-01T13:52:50;15.60;;;3.20;;
55069;SDS011;40967;52.070;8.596;2023-02-01T13:57:44;15.38;;;3.58;;
55069;SDS011;40967;52.070;8.596;2023-02-01T14:02:50;13.25;;;3.00;;
55069;SDS011;40967;52.070;8.596;2023-02-01T14:23:38;13.50;;;2.83;;
55069;SDS011;40967;52.070;8.596;2023-02-01T14:26:06;12.02;;;2.58;;
55069;SDS011;40967;52.070;8.596;2023-02-01T14:28:35;15.02;;;2.95;;
55069;SDS011;40967;52.070;8.596;2023-02-01T14:31:13;7.20;;;2.00;;
55069;SDS011;40967;52.070;8.596;2023-02-01T14:33:41;9.05;;;1.40;;
55069;SDS011;40967;52.070;8.596;2023-02-01T14:36:12;8.00;;;1.13;;
55069;SDS011;40967;52.070;8.596;2023-02-01T14:38:39;5.75;;;1.08;;
55069;SDS011;40967;52.070;8.596;2023-02-01T14:41:21;7.10;;;1.30;;
55069;SDS011;40967;52.070;8.596;2023-02-01T14:49:30;7.73;;;1.87;;
55069;SDS011;40967;52.070;8.596;2023-02-01T14:51:58;11.13;;;3.65;;
55069;SDS011;40967;52.070;8.596;2023-02-01T14:54:27;8.05;;;2.47;;
55069;SDS011;40967;52.070;8.596;2023-02-01T14:56:53;6.80;;;1.85;;
55069;SDS011;40967;52.070;8.596;2023-02-01T14:59:20;5.83;;;1.30;;
55069;SDS011;40967;52.070;8.596;2023-02-01T15:01:56;5.90;;;1.38;;
55069;SDS011;40967;52.070;8.596;2023-02-01T15:04:24;9.50;;;1.85;;
55069;SDS011;40967;52.070;8.596;2023-02-01T15:06:52;4.47;;;1.17;;
55069;SDS011;40967;52.070;8.596;2023-02-01T15:09:24;10.18;;;1.90;;
55069;SDS011;40967;52.070;8.596;2023-02-01T15:12:04;11.98;;;2.85;;
55069;SDS011;40967;52.070;8.596;2023-02-01T15:14:36;11.18;;;2.17;;
55069;SDS011;40967;52.070;8.596;2023-02-01T15:19:59;8.40;;;2.28;;
55069;SDS011;40967;52.070;8.596;2023-02-01T15:22:37;10.20;;;2.60;;
55069;SDS011;40967;52.070;8.596;2023-02-01T15:25:02;12.47;;;2.43;;
55069;SDS011;40967;52.070;8.596;2023-02-01T15:27:29;15.02;;;2.33;;
55069;SDS011;40967;52.070;8.596;2023-02-01T15:30:06;12.77;;;2.20;;
55069;SDS011;40967;52.070;8.596;2023-02-01T15:32:36;12.07;;;2.00;;
55069;SDS011;40967;52.070;8.596;2023-02-01T15:35:04;10.75;;;2.30;;
55069;SDS011;40967;52.070;8.596;2023-02-01T15:37:30;9.30;;;2.40;;
55069;SDS011;40967;52.070;8.596;2023-02-01T15:42:34;13.20;;;2.67;;
55069;SDS011;40967;52.070;8.596;2023-02-01T15:45:00;10.50;;;2.60;;
55069;SDS011;40967;52.070;8.596;2023-02-01T15:47:27;12.83;;;2.50;;
55069;SDS011;40967;52.070;8.596;2023-02-01T15:49:56;9.68;;;2.42;;
55069;SDS011;40967;52.070;8.596;2023-02-01T15:52:34;8.70;;;2.20;;
55069;SDS011;40967;52.070;8.596;2023-02-01T15:55:05;9.93;;;2.10;;
55069;SDS011;40967;52.070;8.596;2023-02-01T15:57:43;10.90;;;2.25;;
55069;SDS011;40967;52.070;8.596;2023-02-01T16:02:57;11.25;;;2.33;;
55069;SDS011;40967;52.070;8.596;2023-02-01T16:05:40;14.27;;;2.58;;
55069;SDS011;40967;52.070;8.596;2023-02-01T16:10:42;13.52;;;3.40;;
55069;SDS011;40967;52.070;8.596;2023-02-01T16:13:10;15.02;;;2.70;;
55069;SDS011;40967;52.070;8.596;2023-02-01T16:15:36;10.13;;;2.40;;
55069;SDS011;40967;52.070;8.596;2023-02-01T16:18:02;13.87;;;3.10;;
55069;SDS011;40967;52.070;8.596;2023-02-01T16:20:27;15.50;;;2.65;;
55069;SDS011;40967;52.070;8.596;2023-02-01T16:22:54;14.40;;;3.33;;
55069;SDS011;40967;52.070;8.596;2023-02-01T16:25:19;18.33;;;4.07;;
55069;SDS011;40967;52.070;8.596;2023-02-01T16:27:45;16.37;;;3.60;;
55069;SDS011;40967;52.070;8.596;2023-02-01T16:30:10;16.53;;;3.50;;
55069;SDS011;40967;52.070;8.596;2023-02-01T16:32:37;16.98;;;3.75;;
55069;SDS011;40967;52.070;8.596;2023-02-01T16:35:22;16.98;;;3.50;;
55069;SDS011;40967;52.070;8.596;2023-02-01T16:37:53;10.05;;;2.58;;
55069;SDS011;40967;52.070;8.596;2023-02-01T16:40:19;8.70;;;2.07;;
55069;SDS011;40967;52.070;8.596;2023-02-01T16:42:47;13.82;;;3.20;;
55069;SDS011;40967;52.070;8.596;2023-02-01T16:45:15;14.63;;;3.35;;
55069;SDS011;40967;52.070;8.596;2023-02-01T16:47:42;24.58;;;4.50;;
55069;SDS011;40967;52.070;8.596;2023-02-01T16:50:16;17.15;;;4.53;;
55069;SDS011;40967;52.070;8.596;2023-02-01T16:52:51;14.02;;;3.40;;
55069;SDS011;40967;52.070;8.596;2023-02-01T16:55:18;16.23;;;3.35;;
55069;SDS011;40967;52.070;8.596;2023-02-01T16:57:49;13.23;;;2.95;;
55069;SDS011;40967;52.070;8.596;2023-02-01T17:00:14;12.93;;;3.08;;
55069;SDS011;40967;52.070;8.596;2023-02-01T17:02:40;24.80;;;4.85;;
55069;SDS011;40967;52.070;8.596;2023-02-01T17:05:07;15.02;;;3.15;;
55069;SDS011;40967;52.070;8.596;2023-02-01T17:07:33;16.33;;;3.35;;
55069;SDS011;40967;52.070;8.596;2023-02-01T17:09:58;15.50;;;2.80;;
55069;SDS011;40967;52.070;8.596;2023-02-01T17:12:25;15.43;;;3.00;;
55069;SDS011;40967;52.070;8.596;2023-02-01T17:14:52;12.63;;;2.88;;
55069;SDS011;40967;52.070;8.596;2023-02-01T17:17:18;17.27;;;3.58;;
55069;SDS011;40967;52.070;8.596;2023-02-01T17:19:49;13.45;;;3.50;;
55069;SDS011;40967;52.070;8.596;2023-02-01T17:22:17;16.60;;;3.17;;
55069;SDS011;40967;52.070;8.596;2023-02-01T17:24:43;13.20;;;2.92;;
55069;SDS011;40967;52.070;8.596;2023-02-01T17:27:09;11.25;;;2.95;;
55069;SDS011;40967;52.070;8.596;2023-02-01T17:29:34;13.97;;;3.17;;
55069;SDS011;40967;52.070;8.596;2023-02-01T17:31:59;13.50;;;2.83;;